aviador You're here:

CZVL Decoded Metar

Edmonton / Villeneuve in Canada
Report Time2018-06-24 09:00:00
UTC Time2018-06-24 09:26:00
Flight Rules vfr VFR
Wind260° at 05 kt
W.Decomp.*RWY 26: 4.8 kt HW 1.3 kt LCW
RWY 16: 0.4 kt HW 5.0 kt RCW
W.Rank260° ranks 15
Current wind is below 260° avg. (6.9)
Visibility9999 m
Phenomena:N/A
Clouds:N/A
Expected CloudBase > 1,600 ft AGL from Temp-Dew spread
CeilingNone
Temp17°C
Dew Point13°C (77% RH)
AAT16.1°C
QNH1014 hPa
Raw Report
METAR CZVL 240900Z AUTO 26005KT 9SM CLR 17/13 A2993 RMK SLP134
DENSITY ALT 2900FT=

Extra information for CZVL:More info

Metar Taf Metar & Taf Last 4 Metars F.Rules Stats Wind Profile Meteogram Temp Stats Metar ALERT Operation Metar Decoded Social comments